createdAt,value
2022-12-04T00:03:56.012Z,0.84
2022-12-04T00:06:34.491Z,1.29
2022-12-04T00:10:39.954Z,2.24
2022-12-04T00:13:08.486Z,0.86
2022-12-04T00:15:36.654Z,-0.25
2022-12-04T00:18:05.368Z,1.62
2022-12-04T00:20:35.138Z,0.59
2022-12-04T00:37:35.449Z,0.43
2022-12-04T02:10:45.205Z,1.84
2022-12-04T02:13:17.942Z,1.75
2022-12-04T02:15:55.032Z,1.84
2022-12-04T02:18:34.574Z,1.11
2022-12-04T02:21:10.165Z,1.86
2022-12-04T02:23:57.128Z,1.88
2022-12-04T02:26:40.321Z,1.31
2022-12-04T02:29:17.872Z,1.92
2022-12-04T02:31:56.541Z,1.95
2022-12-04T02:34:29.883Z,2.00
2022-12-04T02:37:04.149Z,2.02
2022-12-04T02:39:36.953Z,2.06
2022-12-04T02:42:11.744Z,1.95
2022-12-04T02:44:45.925Z,2.04
2022-12-04T02:47:18.566Z,2.05
2022-12-04T02:49:50.394Z,2.00
2022-12-04T02:52:23.442Z,2.07
2022-12-04T02:54:58.206Z,2.09
2022-12-04T02:57:32.858Z,2.12
2022-12-04T03:00:08.205Z,2.15
2022-12-04T03:02:42.100Z,2.19
2022-12-04T03:05:13.952Z,2.19
2022-12-04T03:07:47.861Z,2.18
2022-12-04T03:10:19.734Z,2.16
2022-12-04T03:12:51.874Z,1.85
2022-12-04T03:15:27.749Z,2.04
2022-12-04T03:18:02.232Z,2.08
2022-12-04T03:20:33.871Z,2.05
2022-12-04T03:23:07.418Z,1.78
2022-12-04T03:25:42.587Z,2.02
2022-12-04T03:28:18.176Z,2.00
2022-12-04T03:30:53.437Z,1.98
2022-12-04T03:33:24.357Z,1.98
2022-12-04T03:35:56.840Z,1.70
2022-12-04T03:38:34.590Z,1.92
2022-12-04T03:41:05.611Z,1.92
2022-12-04T03:43:37.331Z,1.88
2022-12-04T03:46:11.294Z,1.88
2022-12-04T03:48:43.682Z,1.87
2022-12-04T03:51:17.843Z,1.88
2022-12-04T03:53:48.952Z,1.86
2022-12-04T03:56:19.875Z,1.82
2022-12-04T03:58:51.846Z,1.81
2022-12-04T04:01:25.031Z,1.78
2022-12-04T04:03:57.319Z,1.72
2022-12-04T04:06:28.966Z,1.59
2022-12-04T04:08:59.847Z,1.65
2022-12-04T04:11:33.648Z,1.64
2022-12-04T04:14:23.805Z,1.59
2022-12-04T04:17:19.862Z,1.66
2022-12-04T04:20:12.469Z,1.67
2022-12-04T04:23:13.207Z,1.68
2022-12-04T04:25:43.987Z,1.72
2022-12-04T04:28:33.257Z,1.74
2022-12-04T04:31:09.330Z,1.52
2022-12-04T04:33:48.431Z,1.74
2022-12-04T04:36:24.886Z,0.44
2022-12-04T04:39:01.881Z,1.59
2022-12-04T04:41:37.387Z,1.59
2022-12-04T04:44:13.226Z,1.43
2022-12-04T04:46:47.048Z,1.52
2022-12-04T04:49:18.293Z,1.60
2022-12-04T04:51:47.029Z,1.59
2022-12-04T04:54:17.579Z,1.57
2022-12-04T04:56:46.710Z,1.56
2022-12-04T04:59:15.593Z,1.58
2022-12-04T05:01:46.138Z,1.58
2022-12-04T05:04:14.639Z,1.60
2022-12-04T05:06:43.737Z,1.62
2022-12-04T05:09:11.595Z,1.64
2022-12-04T05:11:39.348Z,1.63
2022-12-04T05:14:08.900Z,1.61
2022-12-04T05:16:36.783Z,1.61
2022-12-04T05:19:22.209Z,1.60
2022-12-04T05:21:51.284Z,1.50
2022-12-04T05:24:19.028Z,1.50
2022-12-04T05:26:46.743Z,1.46
2022-12-04T05:29:14.571Z,1.23
2022-12-04T05:31:42.418Z,1.39
2022-12-04T05:34:10.267Z,1.39
2022-12-04T05:36:38.139Z,1.40
2022-12-04T05:39:07.256Z,1.42
2022-12-04T05:41:34.993Z,1.39
2022-12-04T05:44:02.766Z,1.38
2022-12-04T05:46:30.594Z,1.38
2022-12-04T05:48:58.639Z,1.10
2022-12-04T05:51:26.431Z,1.41
2022-12-04T05:53:54.138Z,1.37
2022-12-04T05:56:23.477Z,1.35
2022-12-04T05:58:51.210Z,1.33
2022-12-04T06:01:21.647Z,1.36
2022-12-04T06:03:49.479Z,1.33
2022-12-04T06:06:21.685Z,0.63
2022-12-04T06:08:49.930Z,1.29
2022-12-04T06:11:20.455Z,-0.19
2022-12-04T06:13:50.467Z,0.36
2022-12-04T06:16:21.453Z,1.24
2022-12-04T06:18:52.034Z,1.20
2022-12-04T06:21:20.489Z,1.01
2022-12-04T06:23:48.572Z,0.80
2022-12-04T06:26:16.945Z,1.10
2022-12-04T06:28:44.756Z,1.10
2022-12-04T06:31:18.796Z,0.93
2022-12-04T06:33:46.708Z,1.08
2022-12-04T06:36:16.725Z,1.07
2022-12-04T06:41:35.768Z,1.02
2022-12-04T06:44:08.796Z,1.00
2022-12-04T06:46:46.482Z,0.47
2022-12-04T06:49:15.163Z,1.00
2022-12-04T06:51:43.020Z,1.04
2022-12-04T06:54:11.279Z,1.07
2022-12-04T06:56:39.145Z,1.09
2022-12-04T06:59:06.958Z,0.84
2022-12-04T07:01:39.078Z,0.56
2022-12-04T07:04:28.754Z,1.11
2022-12-04T07:07:02.236Z,0.88
2022-12-04T07:09:42.879Z,1.06
2022-12-04T07:12:12.316Z,1.07
2022-12-04T07:14:40.311Z,1.11
2022-12-04T07:17:08.065Z,1.14
2022-12-04T07:19:37.946Z,1.14
2022-12-04T07:22:05.818Z,1.15
2022-12-04T07:24:33.597Z,1.15
2022-12-04T07:27:01.341Z,1.17
2022-12-04T07:29:29.849Z,1.19
2022-12-04T07:31:57.957Z,1.18
2022-12-04T07:34:25.800Z,1.17
2022-12-04T07:36:54.903Z,1.20
2022-12-04T07:39:22.663Z,1.23
2022-12-04T07:41:50.400Z,1.26
2022-12-04T07:44:19.248Z,1.29
2022-12-04T07:46:47.073Z,1.06
2022-12-04T07:49:14.787Z,1.20
2022-12-04T07:51:42.740Z,1.16
2022-12-04T07:54:11.902Z,1.26
2022-12-04T07:56:39.637Z,1.24
2022-12-04T07:59:07.445Z,1.23
2022-12-04T08:01:35.349Z,1.16
2022-12-04T08:04:04.470Z,1.19
2022-12-04T08:06:35.053Z,1.18
2022-12-04T08:09:09.247Z,1.14
2022-12-04T08:11:38.919Z,0.67
2022-12-04T08:14:08.736Z,1.11
2022-12-04T08:16:36.499Z,1.12
2022-12-04T08:19:04.546Z,0.98
2022-12-04T08:21:33.403Z,0.87
2022-12-04T08:24:01.752Z,1.12
2022-12-04T08:26:31.429Z,1.16
2022-12-04T08:29:02.219Z,1.19
2022-12-04T08:31:32.840Z,1.22
2022-12-04T08:34:03.111Z,1.27
2022-12-04T08:36:31.369Z,1.29
2022-12-04T08:38:59.273Z,1.29
2022-12-04T08:41:27.704Z,1.30
2022-12-04T08:43:57.710Z,1.32
2022-12-04T08:46:28.459Z,1.34
2022-12-04T08:48:56.534Z,1.38
2022-12-04T08:51:25.762Z,1.42
2022-12-04T08:53:55.897Z,1.45
2022-12-04T08:56:26.153Z,1.48
2022-12-04T08:59:04.585Z,1.54
2022-12-04T09:01:34.530Z,1.61
2022-12-04T09:04:02.420Z,1.55
2022-12-04T09:06:32.649Z,1.63
2022-12-04T09:09:02.618Z,1.66
2022-12-04T09:11:37.277Z,1.58
2022-12-04T09:14:10.071Z,1.66
2022-12-04T09:17:23.296Z,1.68
2022-12-04T09:20:11.005Z,1.37
2022-12-04T09:26:37.191Z,1.73
2022-12-04T09:32:56.482Z,1.84
2022-12-04T09:35:48.109Z,1.88
2022-12-04T09:42:10.278Z,2.01
2022-12-04T09:45:08.687Z,1.80
2022-12-04T09:48:32.855Z,1.98
2022-12-04T09:51:51.855Z,2.15
2022-12-04T09:59:05.746Z,2.12
2022-12-04T10:01:46.043Z,2.29
2022-12-04T10:26:12.940Z,2.53
2022-12-04T10:31:38.327Z,2.16
2022-12-04T10:34:54.680Z,2.28
2022-12-04T10:46:15.045Z,2.59
2022-12-04T10:48:46.568Z,2.60
2022-12-04T10:51:17.179Z,2.62
2022-12-04T10:53:49.218Z,2.62
2022-12-04T10:56:18.935Z,2.67
2022-12-04T10:58:56.696Z,2.56
2022-12-04T11:02:10.720Z,2.79
2022-12-04T11:08:40.181Z,2.91
2022-12-04T11:11:28.530Z,2.86
2022-12-04T11:14:32.411Z,2.90
2022-12-04T11:17:43.287Z,2.91
2022-12-04T11:20:21.094Z,2.76
2022-12-04T11:22:54.726Z,2.63
2022-12-04T11:25:25.035Z,2.67
2022-12-04T11:27:57.017Z,2.68
2022-12-04T11:30:28.437Z,2.59
2022-12-04T11:32:57.991Z,2.73
2022-12-04T11:35:33.387Z,2.57
2022-12-04T11:38:10.320Z,2.68
2022-12-04T11:41:02.423Z,2.90
2022-12-04T11:43:59.366Z,2.88
2022-12-04T11:49:52.248Z,2.87
2022-12-04T11:53:12.572Z,2.83
2022-12-04T11:56:20.461Z,2.80
2022-12-04T12:03:24.719Z,2.92
2022-12-04T12:06:30.910Z,3.04
2022-12-04T12:09:17.080Z,3.05
2022-12-04T12:11:52.847Z,3.08
2022-12-04T12:14:26.506Z,3.32
2022-12-04T12:17:03.460Z,3.32
2022-12-04T12:20:09.091Z,3.36
2022-12-04T12:22:59.179Z,3.35
2022-12-04T12:25:33.302Z,3.44
2022-12-04T12:28:13.223Z,3.40
2022-12-04T12:30:55.326Z,3.51
2022-12-04T12:33:27.023Z,3.53
2022-12-04T12:36:11.301Z,3.39
2022-12-04T12:43:05.838Z,3.59
2022-12-04T12:45:42.757Z,3.40
2022-12-04T12:48:21.270Z,3.27
2022-12-04T12:51:14.996Z,3.36
2022-12-04T12:53:48.775Z,3.22
2022-12-04T12:56:17.805Z,3.20
2022-12-04T12:58:53.342Z,2.83
2022-12-04T13:01:28.953Z,3.09
2022-12-04T13:04:04.590Z,3.10
2022-12-04T13:06:37.798Z,2.99
2022-12-04T13:09:18.019Z,3.14
2022-12-04T13:11:48.379Z,3.24
2022-12-04T13:14:16.404Z,3.15
2022-12-04T13:17:02.835Z,3.28
2022-12-04T13:20:12.150Z,3.31
2022-12-04T13:26:53.915Z,3.23
2022-12-04T13:29:38.644Z,2.95
2022-12-04T13:32:38.893Z,3.02
2022-12-04T13:35:34.280Z,3.10
2022-12-04T13:41:19.466Z,2.90
2022-12-04T13:43:57.479Z,2.90
2022-12-04T13:46:31.507Z,2.55
2022-12-04T13:49:10.422Z,2.95
2022-12-04T13:51:41.025Z,2.92
2022-12-04T13:54:28.505Z,2.84
2022-12-04T13:56:58.533Z,2.87
2022-12-04T13:59:40.710Z,2.67
2022-12-04T14:02:25.785Z,2.96
2022-12-04T14:04:59.815Z,2.96
2022-12-04T14:07:31.745Z,2.77
2022-12-04T14:10:04.529Z,2.94
2022-12-04T14:12:36.062Z,2.80
2022-12-04T14:15:08.987Z,2.95
2022-12-04T14:17:39.128Z,2.90
2022-12-04T14:20:10.153Z,2.90
2022-12-04T14:22:43.480Z,3.01
2022-12-04T14:25:35.367Z,3.04
2022-12-04T14:28:15.060Z,3.04
2022-12-04T14:30:45.615Z,3.02
2022-12-04T14:33:20.504Z,3.03
2022-12-04T14:35:51.583Z,3.09
2022-12-04T14:41:14.156Z,3.06
2022-12-04T14:44:04.872Z,2.80
2022-12-04T14:47:00.060Z,2.45
2022-12-04T14:50:04.575Z,3.08
2022-12-04T14:53:17.187Z,3.14
2022-12-04T15:08:00.962Z,3.23
2022-12-04T15:15:05.115Z,3.08
2022-12-04T15:26:02.950Z,3.18
2022-12-04T15:28:35.458Z,3.11
2022-12-04T15:31:06.687Z,3.24
2022-12-04T15:33:38.293Z,3.30
2022-12-04T15:36:09.855Z,3.24
2022-12-04T15:38:37.884Z,3.29
2022-12-04T15:41:08.976Z,3.30
2022-12-04T15:43:41.629Z,3.33
2022-12-04T15:46:14.236Z,3.54
2022-12-04T15:48:47.588Z,3.52
2022-12-04T15:51:20.190Z,3.61
2022-12-04T16:15:24.901Z,3.51
2022-12-04T16:18:27.613Z,3.72
2022-12-04T16:21:13.659Z,3.75
2022-12-04T16:30:45.545Z,3.74
2022-12-04T16:36:51.196Z,1.15
2022-12-04T16:39:22.527Z,2.41
2022-12-04T16:41:50.829Z,2.28
2022-12-04T16:44:18.935Z,2.44
2022-12-04T16:46:47.418Z,3.38
2022-12-04T16:49:16.077Z,2.12
2022-12-04T16:51:49.942Z,3.63
2022-12-04T16:54:19.455Z,3.72
2022-12-04T16:57:10.388Z,3.64
2022-12-04T16:59:38.842Z,3.56
2022-12-04T17:02:16.020Z,3.71
2022-12-04T17:04:46.305Z,3.55
2022-12-04T17:07:54.375Z,3.69
2022-12-04T17:10:30.604Z,3.72
2022-12-04T17:13:26.938Z,3.76
2022-12-04T17:16:34.161Z,3.65
2022-12-04T17:19:08.647Z,3.81
2022-12-04T17:21:36.527Z,3.81
2022-12-04T17:27:25.988Z,3.72
2022-12-04T17:33:05.608Z,3.71
2022-12-04T17:35:33.384Z,3.91
2022-12-04T17:38:05.871Z,3.88
2022-12-04T17:40:34.453Z,3.93
2022-12-04T17:43:04.108Z,3.98
2022-12-04T17:45:32.036Z,3.99
2022-12-04T17:48:01.177Z,4.00
2022-12-04T17:50:28.939Z,4.01
2022-12-04T17:52:56.671Z,3.94
2022-12-04T17:55:24.864Z,3.70
2022-12-04T17:57:52.698Z,3.82
2022-12-04T18:00:21.937Z,3.94
2022-12-04T18:02:53.183Z,3.98
2022-12-04T18:05:21.585Z,3.90
2022-12-04T18:07:49.476Z,3.98
2022-12-04T18:10:17.679Z,3.88
2022-12-04T18:12:45.518Z,3.91
2022-12-04T18:15:13.309Z,3.90
2022-12-04T18:17:43.381Z,3.99
2022-12-04T18:20:12.428Z,4.00
2022-12-04T18:22:41.915Z,3.97
2022-12-04T18:25:11.573Z,3.95
2022-12-04T18:27:41.968Z,3.87
2022-12-04T18:30:12.531Z,3.85
2022-12-04T18:32:42.133Z,3.90
2022-12-04T18:35:11.523Z,3.89
2022-12-04T18:37:39.875Z,3.94
2022-12-04T18:40:09.278Z,3.95
2022-12-04T18:42:37.543Z,3.70
2022-12-04T18:45:06.337Z,3.88
2022-12-04T18:47:37.865Z,3.96
2022-12-04T18:50:08.799Z,3.96
2022-12-04T18:52:38.304Z,3.95
2022-12-04T18:55:06.637Z,3.87
2022-12-04T18:57:34.427Z,3.73
2022-12-04T19:00:02.285Z,3.92
2022-12-04T19:02:31.460Z,3.93
2022-12-04T19:04:59.626Z,3.31
2022-12-04T19:07:30.493Z,3.95
2022-12-04T19:10:10.891Z,3.99
2022-12-04T19:12:39.595Z,4.04
2022-12-04T19:15:08.927Z,3.82
2022-12-04T19:17:36.756Z,4.06
2022-12-04T19:20:05.285Z,4.12
2022-12-04T19:22:36.003Z,4.12
2022-12-04T19:25:05.175Z,4.05
2022-12-04T19:27:33.936Z,3.89
2022-12-04T19:30:06.427Z,3.86
2022-12-04T19:32:38.245Z,4.07
2022-12-04T19:35:08.804Z,3.44
2022-12-04T19:37:41.700Z,4.13
2022-12-04T19:40:11.430Z,3.95
2022-12-04T19:42:39.358Z,3.73
2022-12-04T19:45:07.990Z,3.94
2022-12-04T19:47:37.267Z,4.11
2022-12-04T19:50:07.644Z,3.95
2022-12-04T19:53:04.685Z,4.12
2022-12-04T19:55:33.735Z,3.13
2022-12-04T19:58:30.639Z,3.58
2022-12-04T20:00:58.960Z,4.00
2022-12-04T20:03:26.799Z,4.00
2022-12-04T20:05:54.675Z,3.87
2022-12-04T20:08:56.633Z,4.04
2022-12-04T20:11:25.451Z,4.08
2022-12-04T20:13:55.551Z,4.06
2022-12-04T20:16:25.417Z,4.12
2022-12-04T20:18:54.070Z,3.94
2022-12-04T20:21:26.222Z,4.04
2022-12-04T20:24:00.154Z,3.92
2022-12-04T20:29:20.423Z,3.54
2022-12-04T20:31:48.592Z,4.01
2022-12-04T20:34:28.105Z,3.86
2022-12-04T20:36:58.215Z,4.06
2022-12-04T20:39:28.192Z,3.97
2022-12-04T20:41:56.085Z,4.00
2022-12-04T20:44:23.973Z,3.97
2022-12-04T20:46:53.322Z,3.96
2022-12-04T20:49:22.473Z,3.85
2022-12-04T20:51:52.318Z,3.63
2022-12-04T20:54:23.084Z,3.74
2022-12-04T20:56:53.608Z,3.71
2022-12-04T20:59:23.202Z,3.82
2022-12-04T21:01:52.303Z,3.76
2022-12-04T21:04:20.438Z,3.64
2022-12-04T21:06:48.326Z,3.86
2022-12-04T21:09:19.522Z,3.81
2022-12-04T21:11:48.969Z,3.86
2022-12-04T21:14:37.571Z,3.88
2022-12-04T21:17:07.466Z,3.89
2022-12-04T21:19:35.286Z,3.52
2022-12-04T21:22:03.275Z,3.48
2022-12-04T21:24:36.185Z,3.84
2022-12-04T21:27:04.055Z,3.84
2022-12-04T21:29:34.000Z,3.71
2022-12-04T21:32:02.189Z,3.80
2022-12-04T21:34:30.103Z,3.71
2022-12-04T21:36:58.115Z,3.89
2022-12-04T21:39:25.895Z,3.53
2022-12-04T21:42:11.067Z,3.73
2022-12-04T21:44:40.363Z,3.77
2022-12-04T21:47:08.232Z,3.68
2022-12-04T21:49:36.027Z,3.77
2022-12-04T21:52:03.786Z,3.73
2022-12-04T21:54:31.830Z,3.74
2022-12-04T21:56:59.810Z,3.82
2022-12-04T21:59:27.953Z,3.82
2022-12-04T22:01:57.295Z,3.83
2022-12-04T22:04:25.413Z,3.79
2022-12-04T22:06:53.272Z,3.72
2022-12-04T22:09:21.139Z,3.75
2022-12-04T22:11:49.143Z,3.77
2022-12-04T22:14:16.929Z,3.68
2022-12-04T22:16:44.713Z,3.86
2022-12-04T22:19:13.980Z,3.85
2022-12-04T22:21:42.522Z,3.88
2022-12-04T22:24:11.369Z,3.82
2022-12-04T22:26:39.576Z,3.92
2022-12-04T22:29:41.608Z,3.94
2022-12-04T22:31:56.031Z,3.95
2022-12-04T22:34:25.482Z,3.95
2022-12-04T22:36:53.629Z,3.79
2022-12-04T22:39:21.597Z,3.88
2022-12-04T22:41:49.619Z,3.98
2022-12-04T22:44:17.494Z,3.99
2022-12-04T22:46:45.452Z,3.86
2022-12-04T22:49:13.391Z,3.94
2022-12-04T22:51:42.761Z,4.03
2022-12-04T22:54:14.023Z,3.40
2022-12-04T22:56:42.271Z,3.87
2022-12-04T22:59:10.053Z,3.94
2022-12-04T23:01:37.816Z,4.00
2022-12-04T23:04:05.890Z,4.01
2022-12-04T23:06:35.487Z,4.00
2022-12-04T23:09:08.578Z,4.06
2022-12-04T23:11:37.362Z,3.97
2022-12-04T23:14:07.883Z,3.51
2022-12-04T23:16:38.104Z,4.11
2022-12-04T23:19:08.083Z,3.63
2022-12-04T23:21:36.249Z,4.11
2022-12-04T23:24:06.420Z,4.09
2022-12-04T23:26:36.359Z,3.98
2022-12-04T23:29:17.888Z,4.07
2022-12-04T23:31:54.217Z,4.08
2022-12-04T23:34:22.530Z,4.06
2022-12-04T23:36:51.031Z,4.06
2022-12-04T23:39:20.832Z,4.01
2022-12-04T23:41:49.166Z,3.29
2022-12-04T23:44:17.060Z,3.96
2022-12-04T23:46:45.325Z,3.98
2022-12-04T23:49:13.348Z,4.01
2022-12-04T23:51:41.171Z,3.71
2022-12-04T23:54:09.061Z,3.68
2022-12-04T23:56:38.748Z,3.68
2022-12-04T23:59:06.662Z,3.80
